sensor_id;sensor_type;location;lat;lon;timestamp;pressure;altitude;pressure_sealevel;temperature;humidity
55990;BME280;41875;55.806;38.082;2023-05-10T00:01:36;100357.81;;;12.33;30.04
55990;BME280;41875;55.806;38.082;2023-05-10T00:04:05;100364.69;;;12.26;30.56
55990;BME280;41875;55.806;38.082;2023-05-10T00:06:33;100355.28;;;12.14;30.22
55990;BME280;41875;55.806;38.082;2023-05-10T00:09:02;100365.78;;;11.78;31.46
55990;BME280;41875;55.806;38.082;2023-05-10T00:11:32;100359.13;;;11.92;31.24
55990;BME280;41875;55.806;38.082;2023-05-10T00:14:00;100352.38;;;11.69;31.54
55990;BME280;41875;55.806;38.082;2023-05-10T00:16:29;100360.94;;;11.63;31.65
55990;BME280;41875;55.806;38.082;2023-05-10T00:18:57;100360.59;;;11.76;31.75
55990;BME280;41875;55.806;38.082;2023-05-10T00:21:26;100360.03;;;11.82;31.60
55990;BME280;41875;55.806;38.082;2023-05-10T00:23:55;100355.38;;;11.94;31.57
55990;BME280;41875;55.806;38.082;2023-05-10T00:26:23;100364.97;;;11.95;31.80
55990;BME280;41875;55.806;38.082;2023-05-10T00:28:56;100367.19;;;12.10;30.96
55990;BME280;41875;55.806;38.082;2023-05-10T00:31:25;100364.47;;;12.19;31.13
55990;BME280;41875;55.806;38.082;2023-05-10T00:33:54;100356.31;;;12.31;30.54
55990;BME280;41875;55.806;38.082;2023-05-10T00:36:23;100364.13;;;12.50;30.05
55990;BME280;41875;55.806;38.082;2023-05-10T00:38:51;100364.47;;;12.19;31.55
55990;BME280;41875;55.806;38.082;2023-05-10T00:41:20;100369.50;;;11.85;33.41
55990;BME280;41875;55.806;38.082;2023-05-10T00:43:49;100370.91;;;11.79;33.36
55990;BME280;41875;55.806;38.082;2023-05-10T00:46:19;100371.41;;;11.55;34.51
55990;BME280;41875;55.806;38.082;2023-05-10T00:48:48;100368.31;;;11.69;34.17
55990;BME280;41875;55.806;38.082;2023-05-10T00:51:17;100368.91;;;12.01;32.20
55990;BME280;41875;55.806;38.082;2023-05-10T00:53:45;100367.00;;;12.21;32.55
55990;BME280;41875;55.806;38.082;2023-05-10T00:56:14;100372.25;;;12.31;31.72
55990;BME280;41875;55.806;38.082;2023-05-10T00:58:43;100365.03;;;12.41;31.45
55990;BME280;41875;55.806;38.082;2023-05-10T01:01:12;100362.16;;;12.53;31.20
55990;BME280;41875;55.806;38.082;2023-05-10T01:03:42;100358.91;;;12.59;31.10
55990;BME280;41875;55.806;38.082;2023-05-10T01:06:11;100358.28;;;12.47;31.46
55990;BME280;41875;55.806;38.082;2023-05-10T01:08:40;100353.97;;;12.46;30.71
55990;BME280;41875;55.806;38.082;2023-05-10T01:11:09;100363.69;;;12.55;30.85
55990;BME280;41875;55.806;38.082;2023-05-10T01:13:38;100356.09;;;12.96;30.17
55990;BME280;41875;55.806;38.082;2023-05-10T01:16:07;100358.16;;;12.67;30.57
55990;BME280;41875;55.806;38.082;2023-05-10T01:18:39;100359.44;;;12.44;31.19
55990;BME280;41875;55.806;38.082;2023-05-10T01:21:17;100355.22;;;12.42;31.14
55990;BME280;41875;55.806;38.082;2023-05-10T01:30:35;100352.28;;;12.99;29.70
55990;BME280;41875;55.806;38.082;2023-05-10T01:33:16;100353.28;;;12.80;30.09
55990;BME280;41875;55.806;38.082;2023-05-10T01:35:51;100353.38;;;12.70;30.63
55990;BME280;41875;55.806;38.082;2023-05-10T01:38:26;100347.22;;;12.70;30.72
55990;BME280;41875;55.806;38.082;2023-05-10T01:41:08;100354.06;;;12.54;31.34
55990;BME280;41875;55.806;38.082;2023-05-10T01:43:47;100355.56;;;12.57;30.92
55990;BME280;41875;55.806;38.082;2023-05-10T01:46:20;100352.38;;;12.53;30.72
55990;BME280;41875;55.806;38.082;2023-05-10T01:48:55;100346.34;;;12.33;31.37
55990;BME280;41875;55.806;38.082;2023-05-10T01:51:41;100342.34;;;12.47;31.35
55990;BME280;41875;55.806;38.082;2023-05-10T01:54:14;100341.13;;;12.41;31.56
55990;BME280;41875;55.806;38.082;2023-05-10T01:56:43;100343.03;;;12.49;31.17
55990;BME280;41875;55.806;38.082;2023-05-10T01:59:17;100344.06;;;12.38;31.55
55990;BME280;41875;55.806;38.082;2023-05-10T02:01:47;100344.06;;;12.38;31.71
55990;BME280;41875;55.806;38.082;2023-05-10T02:04:19;100351.34;;;12.18;32.46
55990;BME280;41875;55.806;38.082;2023-05-10T02:06:51;100346.66;;;12.30;31.86
55990;BME280;41875;55.806;38.082;2023-05-10T02:09:21;100344.38;;;12.35;31.71
55990;BME280;41875;55.806;38.082;2023-05-10T02:11:50;100339.69;;;12.47;31.37
55990;BME280;41875;55.806;38.082;2023-05-10T02:14:19;100337.56;;;12.50;30.14
55990;BME280;41875;55.806;38.082;2023-05-10T02:16:49;100340.91;;;12.34;31.78
55990;BME280;41875;55.806;38.082;2023-05-10T02:19:22;100346.16;;;12.44;30.55
55990;BME280;41875;55.806;38.082;2023-05-10T02:22:12;100340.66;;;12.46;31.38
55990;BME280;41875;55.806;38.082;2023-05-10T02:24:41;100340.78;;;12.54;31.32
55990;BME280;41875;55.806;38.082;2023-05-10T02:27:10;100343.44;;;12.26;31.43
55990;BME280;41875;55.806;38.082;2023-05-10T02:29:41;100347.59;;;12.39;31.55
55990;BME280;41875;55.806;38.082;2023-05-10T02:32:11;100341.19;;;12.31;32.33
55990;BME280;41875;55.806;38.082;2023-05-10T02:34:42;100330.28;;;12.53;31.72
55990;BME280;41875;55.806;38.082;2023-05-10T02:37:14;100334.47;;;12.55;31.90
55990;BME280;41875;55.806;38.082;2023-05-10T02:39:46;100334.59;;;12.35;32.38
55990;BME280;41875;55.806;38.082;2023-05-10T02:42:17;100332.03;;;12.62;31.97
55990;BME280;41875;55.806;38.082;2023-05-10T02:44:47;100324.66;;;12.56;32.33
55990;BME280;41875;55.806;38.082;2023-05-10T02:47:17;100332.25;;;12.69;31.55
55990;BME280;41875;55.806;38.082;2023-05-10T02:49:49;100319.28;;;12.65;31.14
55990;BME280;41875;55.806;38.082;2023-05-10T02:52:22;100326.78;;;12.52;32.15
55990;BME280;41875;55.806;38.082;2023-05-10T02:54:54;100333.09;;;12.51;32.65
55990;BME280;41875;55.806;38.082;2023-05-10T02:57:27;100330.66;;;12.58;32.00
55990;BME280;41875;55.806;38.082;2023-05-10T02:59:56;100325.28;;;12.68;32.35
55990;BME280;41875;55.806;38.082;2023-05-10T03:02:25;100323.34;;;12.78;31.34
55990;BME280;41875;55.806;38.082;2023-05-10T03:04:55;100323.97;;;12.90;30.85
55990;BME280;41875;55.806;38.082;2023-05-10T03:07:24;100330.78;;;12.92;32.64
55990;BME280;41875;55.806;38.082;2023-05-10T03:09:53;100323.16;;;12.53;31.40
55990;BME280;41875;55.806;38.082;2023-05-10T03:12:33;100325.78;;;12.71;32.01
55990;BME280;41875;55.806;38.082;2023-05-10T03:15:16;100332.34;;;12.59;31.59
55990;BME280;41875;55.806;38.082;2023-05-10T03:17:55;100328.38;;;12.81;31.19
55990;BME280;41875;55.806;38.082;2023-05-10T03:20:33;100321.88;;;13.02;31.18
55990;BME280;41875;55.806;38.082;2023-05-10T03:23:12;100329.56;;;12.87;32.82
55990;BME280;41875;55.806;38.082;2023-05-10T03:25:41;100323.09;;;12.89;33.25
55990;BME280;41875;55.806;38.082;2023-05-10T03:28:12;100319.75;;;13.05;32.29
55990;BME280;41875;55.806;38.082;2023-05-10T03:30:43;100320.00;;;13.20;31.55
55990;BME280;41875;55.806;38.082;2023-05-10T03:33:13;100323.72;;;13.27;31.00
55990;BME280;41875;55.806;38.082;2023-05-10T03:35:46;100326.91;;;12.87;32.90
55990;BME280;41875;55.806;38.082;2023-05-10T03:38:15;100327.09;;;13.11;33.22
55990;BME280;41875;55.806;38.082;2023-05-10T03:40:44;100324.84;;;13.43;31.45
55990;BME280;41875;55.806;38.082;2023-05-10T03:43:12;100324.84;;;12.99;31.96
55990;BME280;41875;55.806;38.082;2023-05-10T03:45:41;100322.63;;;12.94;34.18
55990;BME280;41875;55.806;38.082;2023-05-10T03:48:10;100314.06;;;13.26;33.46
55990;BME280;41875;55.806;38.082;2023-05-10T03:50:41;100323.34;;;13.22;32.39
55990;BME280;41875;55.806;38.082;2023-05-10T03:53:11;100317.69;;;13.44;33.89
55990;BME280;41875;55.806;38.082;2023-05-10T03:55:40;100322.22;;;12.44;36.84
55990;BME280;41875;55.806;38.082;2023-05-10T03:58:10;100317.59;;;12.64;35.63
55990;BME280;41875;55.806;38.082;2023-05-10T04:00:39;100316.38;;;12.77;35.64
55990;BME280;41875;55.806;38.082;2023-05-10T04:03:11;100323.13;;;13.16;35.93
55990;BME280;41875;55.806;38.082;2023-05-10T04:05:40;100320.09;;;12.84;34.81
55990;BME280;41875;55.806;38.082;2023-05-10T04:08:10;100316.88;;;13.51;34.46
55990;BME280;41875;55.806;38.082;2023-05-10T04:10:39;100325.63;;;12.91;32.40
55990;BME280;41875;55.806;38.082;2023-05-10T04:13:07;100325.06;;;12.87;33.20
55990;BME280;41875;55.806;38.082;2023-05-10T04:15:36;100319.69;;;11.31;35.27
55990;BME280;41875;55.806;38.082;2023-05-10T04:18:04;100319.81;;;12.51;35.80
55990;BME280;41875;55.806;38.082;2023-05-10T04:20:34;100319.59;;;13.07;31.55
55990;BME280;41875;55.806;38.082;2023-05-10T04:23:03;100322.44;;;13.14;32.82
55990;BME280;41875;55.806;38.082;2023-05-10T04:25:35;100319.09;;;13.30;35.62
55990;BME280;41875;55.806;38.082;2023-05-10T04:28:03;100318.84;;;14.27;33.33
55990;BME280;41875;55.806;38.082;2023-05-10T04:30:32;100316.88;;;14.54;32.72
55990;BME280;41875;55.806;38.082;2023-05-10T04:33:00;100307.41;;;14.76;33.61
55990;BME280;41875;55.806;38.082;2023-05-10T04:35:29;100308.25;;;14.76;32.79
55990;BME280;41875;55.806;38.082;2023-05-10T04:37:57;100310.84;;;15.34;32.90
55990;BME280;41875;55.806;38.082;2023-05-10T04:40:26;100306.50;;;15.33;33.44
55990;BME280;41875;55.806;38.082;2023-05-10T04:42:56;100309.75;;;14.87;33.47
55990;BME280;41875;55.806;38.082;2023-05-10T04:45:24;100313.72;;;14.67;33.79
55990;BME280;41875;55.806;38.082;2023-05-10T04:47:53;100311.22;;;14.65;34.09
55990;BME280;41875;55.806;38.082;2023-05-10T04:50:21;100308.22;;;14.60;33.87
55990;BME280;41875;55.806;38.082;2023-05-10T04:52:50;100307.91;;;14.71;33.26
55990;BME280;41875;55.806;38.082;2023-05-10T04:55:19;100304.09;;;14.74;33.03
55990;BME280;41875;55.806;38.082;2023-05-10T04:57:48;100304.91;;;14.66;32.06
55990;BME280;41875;55.806;38.082;2023-05-10T05:00:18;100301.75;;;14.96;32.07
55990;BME280;41875;55.806;38.082;2023-05-10T05:02:48;100281.22;;;14.88;31.95
55990;BME280;41875;55.806;38.082;2023-05-10T05:05:16;100280.38;;;15.12;30.43
55990;BME280;41875;55.806;38.082;2023-05-10T05:07:45;100299.16;;;15.83;28.38
55990;BME280;41875;55.806;38.082;2023-05-10T05:10:13;100300.28;;;15.97;28.42
55990;BME280;41875;55.806;38.082;2023-05-10T05:12:46;100299.53;;;15.72;29.40
55990;BME280;41875;55.806;38.082;2023-05-10T05:15:14;100293.41;;;16.03;28.10
55990;BME280;41875;55.806;38.082;2023-05-10T05:17:45;100290.13;;;16.48;27.23
55990;BME280;41875;55.806;38.082;2023-05-10T05:20:13;100291.19;;;16.38;26.43
55990;BME280;41875;55.806;38.082;2023-05-10T05:22:42;100285.63;;;16.25;25.63
55990;BME280;41875;55.806;38.082;2023-05-10T05:25:11;100283.00;;;15.85;26.48
55990;BME280;41875;55.806;38.082;2023-05-10T05:27:39;100279.31;;;16.41;26.09
55990;BME280;41875;55.806;38.082;2023-05-10T05:30:09;100279.69;;;16.99;25.33
55990;BME280;41875;55.806;38.082;2023-05-10T05:32:38;100280.16;;;16.80;24.97
55990;BME280;41875;55.806;38.082;2023-05-10T05:35:08;100275.66;;;16.57;25.46
55990;BME280;41875;55.806;38.082;2023-05-10T05:37:37;100280.81;;;17.65;24.47
55990;BME280;41875;55.806;38.082;2023-05-10T05:40:06;100270.19;;;17.12;24.94
55990;BME280;41875;55.806;38.082;2023-05-10T05:42:35;100274.06;;;17.24;24.48
55990;BME280;41875;55.806;38.082;2023-05-10T05:45:04;100274.78;;;17.18;24.35
55990;BME280;41875;55.806;38.082;2023-05-10T05:47:32;100276.19;;;17.59;23.81
55990;BME280;41875;55.806;38.082;2023-05-10T05:50:01;100281.09;;;17.55;23.54
55990;BME280;41875;55.806;38.082;2023-05-10T05:52:31;100271.59;;;16.84;23.95
55990;BME280;41875;55.806;38.082;2023-05-10T05:54:59;100277.75;;;16.70;24.28
55990;BME280;41875;55.806;38.082;2023-05-10T05:57:30;100270.00;;;17.13;23.52
55990;BME280;41875;55.806;38.082;2023-05-10T05:59:58;100268.53;;;17.41;23.19
55990;BME280;41875;55.806;38.082;2023-05-10T06:02:27;100258.22;;;17.74;22.72
55990;BME280;41875;55.806;38.082;2023-05-10T06:04:55;100271.28;;;17.17;22.80
55990;BME280;41875;55.806;38.082;2023-05-10T06:07:24;100264.38;;;17.38;22.15
55990;BME280;41875;55.806;38.082;2023-05-10T06:09:54;100265.16;;;17.83;21.68
55990;BME280;41875;55.806;38.082;2023-05-10T06:12:22;100267.97;;;17.00;22.17
55990;BME280;41875;55.806;38.082;2023-05-10T06:14:51;100261.41;;;17.18;22.58
55990;BME280;41875;55.806;38.082;2023-05-10T06:17:19;100252.75;;;17.16;21.74
55990;BME280;41875;55.806;38.082;2023-05-10T06:19:48;100255.38;;;18.34;21.17
55990;BME280;41875;55.806;38.082;2023-05-10T06:22:17;100253.97;;;18.88;20.48
55990;BME280;41875;55.806;38.082;2023-05-10T06:24:45;100249.75;;;18.51;20.97
55990;BME280;41875;55.806;38.082;2023-05-10T06:27:15;100254.56;;;17.45;21.43
55990;BME280;41875;55.806;38.082;2023-05-10T06:29:44;100252.44;;;18.51;20.35
55990;BME280;41875;55.806;38.082;2023-05-10T06:32:12;100251.88;;;18.84;19.59
55990;BME280;41875;55.806;38.082;2023-05-10T06:34:41;100248.34;;;18.83;20.11
55990;BME280;41875;55.806;38.082;2023-05-10T06:37:10;100257.75;;;17.86;20.33
55990;BME280;41875;55.806;38.082;2023-05-10T06:39:38;100249.47;;;18.89;20.11
55990;BME280;41875;55.806;38.082;2023-05-10T06:42:07;100253.91;;;18.10;21.11
55990;BME280;41875;55.806;38.082;2023-05-10T06:44:37;100244.94;;;18.39;20.71
55990;BME280;41875;55.806;38.082;2023-05-10T06:47:05;100254.31;;;18.50;20.14
55990;BME280;41875;55.806;38.082;2023-05-10T06:49:34;100253.72;;;18.83;19.80
55990;BME280;41875;55.806;38.082;2023-05-10T06:52:02;100243.41;;;19.92;19.22
55990;BME280;41875;55.806;38.082;2023-05-10T06:54:31;100244.06;;;19.17;19.14
55990;BME280;41875;55.806;38.082;2023-05-10T06:56:59;100237.22;;;19.08;19.32
55990;BME280;41875;55.806;38.082;2023-05-10T06:59:34;100243.16;;;17.88;20.63
55990;BME280;41875;55.806;38.082;2023-05-10T07:02:05;100240.69;;;18.52;19.86
55990;BME280;41875;55.806;38.082;2023-05-10T07:04:33;100236.16;;;19.44;19.43
55990;BME280;41875;55.806;38.082;2023-05-10T07:07:02;100242.19;;;20.15;18.91
55990;BME280;41875;55.806;38.082;2023-05-10T07:09:30;100235.16;;;19.10;19.87
55990;BME280;41875;55.806;38.082;2023-05-10T07:11:59;100243.22;;;20.14;19.17
55990;BME280;41875;55.806;38.082;2023-05-10T07:14:28;100234.22;;;19.25;20.14
55990;BME280;41875;55.806;38.082;2023-05-10T07:16:57;100236.69;;;19.75;19.25
55990;BME280;41875;55.806;38.082;2023-05-10T07:19:27;100227.72;;;20.43;18.86
55990;BME280;41875;55.806;38.082;2023-05-10T07:21:56;100234.97;;;20.69;18.66
55990;BME280;41875;55.806;38.082;2023-05-10T07:24:24;100224.94;;;19.83;19.67
55990;BME280;41875;55.806;38.082;2023-05-10T07:26:53;100230.84;;;19.58;18.66
55990;BME280;41875;55.806;38.082;2023-05-10T07:29:21;100229.38;;;19.55;18.74
55990;BME280;41875;55.806;38.082;2023-05-10T07:31:50;100225.75;;;19.28;19.02
55990;BME280;41875;55.806;38.082;2023-05-10T07:34:18;100236.31;;;19.01;19.34
55990;BME280;41875;55.806;38.082;2023-05-10T07:36:48;100222.09;;;19.36;19.01
55990;BME280;41875;55.806;38.082;2023-05-10T07:39:17;100224.91;;;18.64;18.54
55990;BME280;41875;55.806;38.082;2023-05-10T07:41:54;100227.56;;;18.13;19.03
55990;BME280;41875;55.806;38.082;2023-05-10T07:44:22;100221.47;;;19.40;18.03
55990;BME280;41875;55.806;38.082;2023-05-10T07:46:50;100219.50;;;19.21;17.33
55990;BME280;41875;55.806;38.082;2023-05-10T07:49:19;100230.06;;;17.63;19.51
55990;BME280;41875;55.806;38.082;2023-05-10T07:51:49;100234.44;;;18.01;19.51
55990;BME280;41875;55.806;38.082;2023-05-10T07:54:17;100224.28;;;18.40;19.17
55990;BME280;41875;55.806;38.082;2023-05-10T07:56:46;100218.72;;;19.82;18.55
55990;BME280;41875;55.806;38.082;2023-05-10T07:59:15;100214.50;;;19.53;18.32
55990;BME280;41875;55.806;38.082;2023-05-10T08:01:44;100222.31;;;18.05;20.03
55990;BME280;41875;55.806;38.082;2023-05-10T08:04:13;100210.78;;;18.83;19.52
55990;BME280;41875;55.806;38.082;2023-05-10T08:06:41;100217.72;;;18.42;19.93
55990;BME280;41875;55.806;38.082;2023-05-10T08:09:11;100212.38;;;18.21;20.01
55990;BME280;41875;55.806;38.082;2023-05-10T08:11:40;100206.16;;;18.70;19.54
55990;BME280;41875;55.806;38.082;2023-05-10T08:14:08;100196.38;;;18.56;19.91
55990;BME280;41875;55.806;38.082;2023-05-10T08:16:37;100199.63;;;18.80;19.36
55990;BME280;41875;55.806;38.082;2023-05-10T08:19:05;100187.09;;;17.93;20.13
55990;BME280;41875;55.806;38.082;2023-05-10T08:21:34;100206.72;;;17.94;19.04
55990;BME280;41875;55.806;38.082;2023-05-10T08:24:02;100192.19;;;18.03;17.98
55990;BME280;41875;55.806;38.082;2023-05-10T08:26:33;100191.66;;;17.56;18.75
55990;BME280;41875;55.806;38.082;2023-05-10T08:29:02;100193.09;;;17.37;18.28
55990;BME280;41875;55.806;38.082;2023-05-10T08:31:30;100200.84;;;17.83;18.54
55990;BME280;41875;55.806;38.082;2023-05-10T08:33:59;100183.25;;;19.03;17.08
55990;BME280;41875;55.806;38.082;2023-05-10T08:36:28;100185.13;;;19.02;17.51
55990;BME280;41875;55.806;38.082;2023-05-10T08:38:56;100195.06;;;18.73;17.65
55990;BME280;41875;55.806;38.082;2023-05-10T08:41:25;100182.56;;;18.59;17.63
55990;BME280;41875;55.806;38.082;2023-05-10T08:43:55;100185.97;;;18.46;18.62
55990;BME280;41875;55.806;38.082;2023-05-10T08:46:23;100188.50;;;18.26;18.18
55990;BME280;41875;55.806;38.082;2023-05-10T08:48:53;100184.34;;;18.80;18.53
55990;BME280;41875;55.806;38.082;2023-05-10T08:51:24;100183.00;;;19.88;17.41
55990;BME280;41875;55.806;38.082;2023-05-10T08:53:54;100174.13;;;20.08;16.84
55990;BME280;41875;55.806;38.082;2023-05-10T08:56:23;100167.50;;;20.44;17.18
55990;BME280;41875;55.806;38.082;2023-05-10T08:58:52;100156.38;;;21.20;16.23
55990;BME280;41875;55.806;38.082;2023-05-10T09:01:22;100159.41;;;21.43;15.99
55990;BME280;41875;55.806;38.082;2023-05-10T09:03:51;100164.63;;;21.31;16.45
55990;BME280;41875;55.806;38.082;2023-05-10T09:06:20;100158.34;;;20.65;16.53
55990;BME280;41875;55.806;38.082;2023-05-10T09:08:49;100165.84;;;20.70;17.45
55990;BME280;41875;55.806;38.082;2023-05-10T09:11:18;100168.06;;;19.86;17.11
55990;BME280;41875;55.806;38.082;2023-05-10T09:13:48;100160.13;;;19.57;17.32
55990;BME280;41875;55.806;38.082;2023-05-10T09:16:18;100153.31;;;19.55;17.61
55990;BME280;41875;55.806;38.082;2023-05-10T09:18:49;100163.41;;;19.46;17.57
55990;BME280;41875;55.806;38.082;2023-05-10T09:21:19;100153.06;;;18.94;17.92
55990;BME280;41875;55.806;38.082;2023-05-10T09:23:48;100150.13;;;20.00;17.44
55990;BME280;41875;55.806;38.082;2023-05-10T09:26:24;100146.69;;;19.50;18.10
55990;BME280;41875;55.806;38.082;2023-05-10T09:28:54;100147.53;;;18.67;18.30
55990;BME280;41875;55.806;38.082;2023-05-10T09:31:23;100149.84;;;18.77;18.41
55990;BME280;41875;55.806;38.082;2023-05-10T09:33:54;100148.69;;;18.93;18.35
55990;BME280;41875;55.806;38.082;2023-05-10T09:36:22;100146.84;;;18.94;18.13
55990;BME280;41875;55.806;38.082;2023-05-10T09:38:51;100138.69;;;20.71;17.16
55990;BME280;41875;55.806;38.082;2023-05-10T09:41:22;100136.47;;;20.21;17.12
55990;BME280;41875;55.806;38.082;2023-05-10T09:43:55;100130.41;;;21.77;16.17
55990;BME280;41875;55.806;38.082;2023-05-10T09:46:23;100129.59;;;22.53;15.19
55990;BME280;41875;55.806;38.082;2023-05-10T09:48:54;100121.34;;;21.20;16.68
55990;BME280;41875;55.806;38.082;2023-05-10T09:51:23;100118.41;;;20.69;17.30
55990;BME280;41875;55.806;38.082;2023-05-10T09:54:10;100121.78;;;21.23;16.60
55990;BME280;41875;55.806;38.082;2023-05-10T09:56:39;100123.19;;;21.71;16.37
55990;BME280;41875;55.806;38.082;2023-05-10T09:59:07;100114.34;;;23.33;15.97
55990;BME280;41875;55.806;38.082;2023-05-10T10:01:36;100103.66;;;22.71;15.67
55990;BME280;41875;55.806;38.082;2023-05-10T10:04:08;100106.25;;;21.51;16.67
55990;BME280;41875;55.806;38.082;2023-05-10T10:06:38;100102.78;;;21.82;16.67
55990;BME280;41875;55.806;38.082;2023-05-10T10:09:07;100102.22;;;20.89;17.41
55990;BME280;41875;55.806;38.082;2023-05-10T10:11:37;100100.03;;;20.52;17.83
55990;BME280;41875;55.806;38.082;2023-05-10T10:14:06;100100.22;;;19.77;18.09
55990;BME280;41875;55.806;38.082;2023-05-10T10:16:35;100098.72;;;18.92;18.67
55990;BME280;41875;55.806;38.082;2023-05-10T10:19:19;100092.78;;;19.86;18.16
55990;BME280;41875;55.806;38.082;2023-05-10T10:21:49;100088.06;;;19.94;18.03
55990;BME280;41875;55.806;38.082;2023-05-10T10:24:18;100086.78;;;20.31;17.38
55990;BME280;41875;55.806;38.082;2023-05-10T10:26:47;100087.31;;;20.86;17.01
55990;BME280;41875;55.806;38.082;2023-05-10T10:29:21;100081.44;;;22.50;16.09
55990;BME280;41875;55.806;38.082;2023-05-10T10:31:58;100082.56;;;22.98;15.19
55990;BME280;41875;55.806;38.082;2023-05-10T10:34:31;100087.13;;;22.42;15.46
55990;BME280;41875;55.806;38.082;2023-05-10T10:37:04;100091.09;;;20.52;17.35
55990;BME280;41875;55.806;38.082;2023-05-10T10:39:33;100077.16;;;20.89;17.06
55990;BME280;41875;55.806;38.082;2023-05-10T10:42:04;100078.06;;;20.55;17.58
55990;BME280;41875;55.806;38.082;2023-05-10T10:44:37;100083.59;;;20.74;17.43
55990;BME280;41875;55.806;38.082;2023-05-10T10:47:23;100081.81;;;19.74;18.09
55990;BME280;41875;55.806;38.082;2023-05-10T10:50:04;100082.47;;;20.23;18.01
55990;BME280;41875;55.806;38.082;2023-05-10T10:52:34;100074.34;;;20.43;17.29
55990;BME280;41875;55.806;38.082;2023-05-10T10:55:05;100076.56;;;20.80;17.33
55990;BME280;41875;55.806;38.082;2023-05-10T10:57:44;100082.03;;;20.26;17.78
55990;BME280;41875;55.806;38.082;2023-05-10T11:00:26;100078.34;;;21.38;16.89
55990;BME280;41875;55.806;38.082;2023-05-10T11:02:58;100075.34;;;22.11;16.29
55990;BME280;41875;55.806;38.082;2023-05-10T11:05:47;100074.09;;;20.78;17.21
55990;BME280;41875;55.806;38.082;2023-05-10T11:08:19;100079.72;;;20.56;17.86
55990;BME280;41875;55.806;38.082;2023-05-10T11:10:50;100069.63;;;21.43;16.43
55990;BME280;41875;55.806;38.082;2023-05-10T11:13:28;100062.72;;;21.54;16.77
55990;BME280;41875;55.806;38.082;2023-05-10T11:15:58;100055.34;;;20.31;17.64
55990;BME280;41875;55.806;38.082;2023-05-10T11:18:28;100064.66;;;20.29;18.15
55990;BME280;41875;55.806;38.082;2023-05-10T11:21:00;100053.81;;;21.53;16.91
55990;BME280;41875;55.806;38.082;2023-05-10T11:23:31;100055.00;;;20.86;17.18
55990;BME280;41875;55.806;38.082;2023-05-10T11:26:00;100048.97;;;20.91;17.64
55990;BME280;41875;55.806;38.082;2023-05-10T11:28:28;100047.66;;;20.41;18.45
55990;BME280;41875;55.806;38.082;2023-05-10T11:30:57;100053.28;;;20.20;18.28
55990;BME280;41875;55.806;38.082;2023-05-10T11:33:26;100044.09;;;20.61;18.60
55990;BME280;41875;55.806;38.082;2023-05-10T11:35:54;100041.59;;;20.60;18.04
55990;BME280;41875;55.806;38.082;2023-05-10T11:38:24;100048.91;;;21.75;16.62
55990;BME280;41875;55.806;38.082;2023-05-10T11:40:52;100036.72;;;21.91;16.45
55990;BME280;41875;55.806;38.082;2023-05-10T11:43:23;100032.25;;;22.04;16.56
55990;BME280;41875;55.806;38.082;2023-05-10T11:45:52;100029.75;;;21.84;16.76
55990;BME280;41875;55.806;38.082;2023-05-10T11:48:21;100035.28;;;21.31;17.53
55990;BME280;41875;55.806;38.082;2023-05-10T11:50:50;100035.25;;;20.99;17.43
55990;BME280;41875;55.806;38.082;2023-05-10T11:53:19;100028.03;;;21.89;16.99
55990;BME280;41875;55.806;38.082;2023-05-10T11:55:51;100036.38;;;21.24;17.44
55990;BME280;41875;55.806;38.082;2023-05-10T11:58:20;100032.25;;;21.78;16.93
55990;BME280;41875;55.806;38.082;2023-05-10T12:00:50;100034.03;;;20.23;17.71
55990;BME280;41875;55.806;38.082;2023-05-10T12:03:19;100028.06;;;20.93;18.78
55990;BME280;41875;55.806;38.082;2023-05-10T12:05:47;100021.94;;;21.11;17.52
55990;BME280;41875;55.806;38.082;2023-05-10T12:08:21;100011.66;;;22.10;17.54
55990;BME280;41875;55.806;38.082;2023-05-10T12:10:51;100009.69;;;22.61;16.45
55990;BME280;41875;55.806;38.082;2023-05-10T12:13:20;100007.72;;;22.68;16.63
55990;BME280;41875;55.806;38.082;2023-05-10T12:15:50;100005.56;;;23.19;15.63
55990;BME280;41875;55.806;38.082;2023-05-10T12:18:22;100015.34;;;21.71;16.74
55990;BME280;41875;55.806;38.082;2023-05-10T12:20:52;100018.16;;;21.19;17.18
55990;BME280;41875;55.806;38.082;2023-05-10T12:23:21;100005.91;;;20.32;18.30
55990;BME280;41875;55.806;38.082;2023-05-10T12:25:49;100000.16;;;20.67;17.75
55990;BME280;41875;55.806;38.082;2023-05-10T12:28:22;99998.53;;;20.60;18.28
55990;BME280;41875;55.806;38.082;2023-05-10T12:30:53;99998.56;;;21.05;17.92
55990;BME280;41875;55.806;38.082;2023-05-10T12:33:22;99998.63;;;20.33;18.17
55990;BME280;41875;55.806;38.082;2023-05-10T12:35:52;99990.63;;;19.86;18.61
55990;BME280;41875;55.806;38.082;2023-05-10T12:38:28;99997.25;;;19.97;18.55
55990;BME280;41875;55.806;38.082;2023-05-10T12:40:58;99997.28;;;21.14;17.73
55990;BME280;41875;55.806;38.082;2023-05-10T12:43:29;100003.78;;;21.00;18.07
55990;BME280;41875;55.806;38.082;2023-05-10T12:45:58;99994.97;;;20.73;18.12
55990;BME280;41875;55.806;38.082;2023-05-10T12:48:26;100002.31;;;20.97;18.50
55990;BME280;41875;55.806;38.082;2023-05-10T12:50:55;99991.16;;;20.94;18.78
55990;BME280;41875;55.806;38.082;2023-05-10T12:53:24;99999.63;;;21.87;17.36
55990;BME280;41875;55.806;38.082;2023-05-10T12:55:52;99992.97;;;22.82;16.94
55990;BME280;41875;55.806;38.082;2023-05-10T12:58:21;99991.00;;;21.78;17.41
55990;BME280;41875;55.806;38.082;2023-05-10T13:01:04;99994.66;;;21.01;17.79
55990;BME280;41875;55.806;38.082;2023-05-10T13:03:33;99992.28;;;20.79;17.99